createdAt,value
2019-03-05T00:00:02.112Z,68.08
2019-03-05T00:02:35.085Z,67.97
2019-03-05T00:05:07.971Z,67.99
2019-03-05T00:07:39.895Z,67.91
2019-03-05T00:10:12.960Z,67.78
2019-03-05T00:12:44.172Z,67.87
2019-03-05T00:15:18.299Z,67.78
2019-03-05T00:17:49.081Z,67.64
2019-03-05T00:20:19.996Z,67.38
2019-03-05T00:22:51.579Z,67.29
2019-03-05T00:25:25.659Z,67.34
2019-03-05T00:27:59.858Z,67.02
2019-03-05T00:30:34.436Z,67.08
2019-03-05T00:33:09.194Z,67.20
2019-03-05T00:35:41.378Z,66.97
2019-03-05T00:38:16.204Z,66.94
2019-03-05T00:40:50.180Z,66.64
2019-03-05T00:43:24.746Z,66.46
2019-03-05T00:45:58.678Z,66.43
2019-03-05T00:48:32.855Z,66.48
2019-03-05T00:51:07.196Z,66.55
2019-03-05T00:53:40.178Z,66.73
2019-03-05T00:56:14.319Z,66.75
2019-03-05T00:58:48.876Z,66.67
2019-03-05T01:01:23.161Z,66.55
2019-03-05T01:03:57.202Z,66.56
2019-03-05T01:06:28.254Z,66.64
2019-03-05T01:08:59.406Z,66.58
2019-03-05T01:11:30.056Z,66.65
2019-03-05T01:14:00.955Z,66.69
2019-03-05T01:16:33.710Z,66.99
2019-03-05T01:19:05.294Z,67.03
2019-03-05T01:21:36.161Z,67.23
2019-03-05T01:24:10.300Z,67.44
2019-03-05T01:26:41.265Z,67.37
2019-03-05T01:29:12.227Z,67.26
2019-03-05T01:31:44.826Z,67.53
2019-03-05T01:34:17.225Z,67.56
2019-03-05T01:36:50.335Z,67.11
2019-03-05T01:39:23.115Z,67.03
2019-03-05T01:41:54.278Z,66.95
2019-03-05T01:44:25.711Z,66.28
2019-03-05T01:46:56.579Z,66.21
2019-03-05T01:49:27.366Z,65.86
2019-03-05T01:51:58.347Z,65.77
2019-03-05T01:54:29.535Z,65.47
2019-03-05T01:57:01.260Z,65.10
2019-03-05T01:59:32.382Z,64.63
2019-03-05T02:02:04.427Z,64.65
2019-03-05T02:04:35.567Z,64.42
2019-03-05T02:07:07.993Z,64.26
2019-03-05T02:09:38.927Z,63.93
2019-03-05T02:12:09.899Z,63.96
2019-03-05T02:14:40.827Z,64.09
2019-03-05T02:17:11.939Z,64.43
2019-03-05T02:19:45.228Z,64.29
2019-03-05T02:22:19.356Z,64.57
2019-03-05T02:24:53.483Z,64.70
2019-03-05T02:27:27.995Z,64.63
2019-03-05T02:30:01.909Z,64.77
2019-03-05T02:32:36.270Z,64.96
2019-03-05T02:35:10.507Z,65.13
2019-03-05T02:37:44.706Z,65.07
2019-03-05T02:40:19.216Z,65.21
2019-03-05T02:42:53.438Z,65.64
2019-03-05T02:45:31.411Z,65.39
2019-03-05T02:48:03.733Z,65.08
2019-03-05T02:50:37.943Z,65.02
2019-03-05T02:53:12.079Z,64.84
2019-03-05T02:55:46.208Z,64.79
2019-03-05T02:58:16.451Z,64.68
2019-03-05T03:00:49.048Z,64.56
2019-03-05T03:03:21.471Z,64.65
2019-03-05T03:05:54.899Z,64.81
2019-03-05T03:08:25.765Z,64.90
2019-03-05T03:10:56.535Z,64.71
2019-03-05T03:13:28.640Z,65.03
2019-03-05T03:15:59.585Z,64.88
2019-03-05T03:18:30.543Z,64.96
2019-03-05T03:21:01.404Z,64.90
2019-03-05T03:23:32.545Z,65.00
2019-03-05T03:26:03.440Z,64.67
2019-03-05T03:28:34.416Z,64.61
2019-03-05T03:31:05.531Z,64.79
2019-03-05T03:33:36.882Z,64.87
2019-03-05T03:36:08.055Z,64.62
2019-03-05T03:38:38.937Z,64.66
2019-03-05T03:41:09.877Z,64.54
2019-03-05T03:43:40.951Z,64.50
2019-03-05T03:46:12.171Z,65.02
2019-03-05T03:48:43.256Z,64.84
2019-03-05T03:51:14.430Z,64.98
2019-03-05T03:53:45.623Z,65.45
2019-03-05T03:56:17.152Z,65.56
2019-03-05T03:58:48.252Z,66.08
2019-03-05T04:01:19.801Z,66.14
2019-03-05T04:03:51.445Z,66.55
2019-03-05T04:06:22.676Z,66.88
2019-03-05T04:08:53.640Z,67.05
2019-03-05T04:11:24.831Z,67.29
2019-03-05T04:13:59.540Z,67.55
2019-03-05T04:16:28.913Z,67.63
2019-03-05T04:19:01.825Z,67.93
2019-03-05T04:21:33.379Z,67.84
2019-03-05T04:24:04.350Z,67.80
2019-03-05T04:26:35.713Z,68.05
2019-03-05T04:29:06.627Z,68.25
2019-03-05T04:31:38.023Z,68.28
2019-03-05T04:34:09.697Z,68.37
2019-03-05T04:36:41.164Z,68.37
2019-03-05T04:39:12.819Z,68.43
2019-03-05T04:41:43.860Z,68.43
2019-03-05T04:44:16.509Z,68.58
2019-03-05T04:46:49.372Z,68.38
2019-03-05T04:49:22.066Z,68.62
2019-03-05T04:51:54.675Z,68.47
2019-03-05T04:54:25.741Z,68.47
2019-03-05T04:56:56.756Z,68.64
2019-03-05T04:59:27.572Z,68.74
2019-03-05T05:01:58.319Z,68.98
2019-03-05T05:04:29.549Z,68.87
2019-03-05T05:07:01.121Z,68.86
2019-03-05T05:09:32.077Z,68.87
2019-03-05T05:12:03.168Z,68.82
2019-03-05T05:14:34.786Z,68.78
2019-03-05T05:17:05.796Z,68.92
2019-03-05T05:19:36.712Z,68.98
2019-03-05T05:22:09.243Z,68.73
2019-03-05T05:24:40.551Z,68.90
2019-03-05T05:27:11.495Z,68.62
2019-03-05T05:29:42.472Z,68.47
2019-03-05T05:32:13.673Z,68.35
2019-03-05T05:34:44.315Z,68.08
2019-03-05T05:37:15.138Z,67.95
2019-03-05T05:39:49.437Z,67.75
2019-03-05T05:42:20.447Z,67.62
2019-03-05T05:44:51.542Z,67.52
2019-03-05T05:47:22.677Z,67.40
2019-03-05T05:49:53.645Z,67.10
2019-03-05T05:52:24.857Z,67.12
2019-03-05T05:54:55.883Z,66.86
2019-03-05T05:57:27.038Z,66.84
2019-03-05T05:59:57.809Z,66.68
2019-03-05T06:02:30.582Z,66.86
2019-03-05T06:05:01.174Z,66.71
2019-03-05T06:07:33.496Z,66.79
2019-03-05T06:10:07.079Z,66.72
2019-03-05T06:12:39.103Z,66.75
2019-03-05T06:15:13.533Z,66.55
2019-03-05T06:17:44.689Z,66.89
2019-03-05T06:20:17.091Z,66.68
2019-03-05T06:22:47.882Z,66.59
2019-03-05T06:25:18.854Z,66.64
2019-03-05T06:27:54.399Z,66.76
2019-03-05T06:30:28.873Z,66.43
2019-03-05T06:32:59.788Z,66.61
2019-03-05T06:35:30.601Z,66.55
2019-03-05T06:38:03.585Z,66.58
2019-03-05T06:40:35.093Z,66.84
2019-03-05T06:43:06.683Z,66.50
2019-03-05T06:45:39.207Z,66.60
2019-03-05T06:48:10.083Z,66.57
2019-03-05T06:50:40.934Z,66.87
2019-03-05T06:53:11.976Z,66.91
2019-03-05T06:55:43.011Z,66.89
2019-03-05T06:58:14.582Z,66.75
2019-03-05T07:00:45.692Z,66.88
2019-03-05T07:03:16.813Z,66.84
2019-03-05T07:05:50.970Z,66.89
2019-03-05T07:08:23.169Z,66.99
2019-03-05T07:10:57.168Z,67.24
2019-03-05T07:13:27.742Z,67.39
2019-03-05T07:16:02.613Z,67.83
2019-03-05T07:18:36.694Z,67.73
2019-03-05T07:21:10.525Z,67.99
2019-03-05T07:23:44.349Z,68.16
2019-03-05T07:26:15.213Z,68.34
2019-03-05T07:28:45.740Z,68.49
2019-03-05T07:31:16.293Z,68.77
2019-03-05T07:33:47.967Z,69.08
2019-03-05T07:36:19.787Z,69.56
2019-03-05T07:38:50.626Z,69.57
2019-03-05T07:41:21.461Z,69.75
2019-03-05T07:43:52.209Z,70.11
2019-03-05T07:46:23.010Z,70.37
2019-03-05T07:48:53.633Z,70.78
2019-03-05T07:51:24.251Z,71.17
2019-03-05T07:53:54.669Z,71.78
2019-03-05T07:56:27.342Z,72.01
2019-03-05T07:58:57.904Z,72.72
2019-03-05T08:01:28.284Z,73.07
2019-03-05T08:03:59.021Z,73.56
2019-03-05T08:06:29.522Z,73.68
2019-03-05T08:09:04.969Z,73.19
2019-03-05T08:11:36.518Z,72.99
2019-03-05T08:14:08.290Z,73.10
2019-03-05T08:16:39.117Z,73.08
2019-03-05T08:19:09.770Z,72.53
2019-03-05T08:21:40.498Z,72.19
2019-03-05T08:24:11.236Z,72.47
2019-03-05T08:26:42.024Z,71.90
2019-03-05T08:29:12.657Z,72.14
2019-03-05T08:31:43.202Z,71.62
2019-03-05T08:34:15.178Z,71.78
2019-03-05T08:36:45.848Z,71.53
2019-03-05T08:39:16.718Z,71.26
2019-03-05T08:41:47.264Z,70.99
2019-03-05T08:44:17.812Z,70.77
2019-03-05T08:46:48.251Z,70.59
2019-03-05T08:49:18.884Z,70.63
2019-03-05T08:51:49.580Z,70.35
2019-03-05T08:54:20.043Z,70.49
2019-03-05T08:56:50.981Z,70.30
2019-03-05T08:59:21.497Z,69.53
2019-03-05T09:01:52.136Z,68.97
2019-03-05T09:04:22.756Z,68.74
2019-03-05T09:06:54.253Z,67.99
2019-03-05T09:09:24.837Z,68.23
2019-03-05T09:11:56.596Z,67.10
2019-03-05T09:14:27.559Z,66.50
2019-03-05T09:16:58.039Z,66.66
2019-03-05T09:19:29.517Z,66.43
2019-03-05T09:22:00.562Z,66.08
2019-03-05T09:24:31.093Z,65.76
2019-03-05T09:27:01.596Z,65.52
2019-03-05T09:29:32.245Z,64.57
2019-03-05T09:32:02.857Z,63.88
2019-03-05T09:34:33.377Z,63.65
2019-03-05T09:37:04.058Z,62.65
2019-03-05T09:39:34.493Z,61.91
2019-03-05T09:42:05.156Z,62.26
2019-03-05T09:44:35.607Z,62.10
2019-03-05T09:47:06.140Z,61.23
2019-03-05T09:49:36.595Z,61.15
2019-03-05T09:52:06.941Z,60.67
2019-03-05T09:54:37.334Z,59.65
2019-03-05T09:57:07.819Z,60.38
2019-03-05T09:59:38.342Z,60.32
2019-03-05T10:02:09.232Z,59.94
2019-03-05T10:04:40.076Z,59.93
2019-03-05T10:07:18.584Z,59.09
2019-03-05T10:09:42.671Z,58.75
2019-03-05T10:12:13.307Z,59.54
2019-03-05T10:14:43.895Z,59.30
2019-03-05T10:17:14.371Z,58.85
2019-03-05T10:19:45.209Z,58.67
2019-03-05T10:22:16.189Z,58.54
2019-03-05T10:24:47.076Z,58.21
2019-03-05T10:27:18.091Z,56.79
2019-03-05T10:29:48.608Z,55.94
2019-03-05T10:32:20.237Z,54.35
2019-03-05T10:34:50.646Z,54.12
2019-03-05T10:37:21.206Z,54.64
2019-03-05T10:39:52.923Z,55.02
2019-03-05T10:42:31.906Z,55.68
2019-03-05T10:45:12.539Z,56.13
2019-03-05T10:47:43.034Z,55.96
2019-03-05T10:50:21.806Z,55.69
2019-03-05T10:52:53.594Z,55.93
2019-03-05T10:55:26.557Z,55.62
2019-03-05T10:57:56.573Z,55.84
2019-03-05T11:00:31.665Z,55.00
2019-03-05T11:03:03.217Z,54.82
2019-03-05T11:05:36.191Z,54.93
2019-03-05T11:08:06.938Z,54.08
2019-03-05T11:10:38.280Z,53.89
2019-03-05T11:13:09.253Z,54.27
2019-03-05T11:15:40.086Z,53.29
2019-03-05T11:18:11.759Z,53.48
2019-03-05T11:20:42.381Z,53.41
2019-03-05T11:23:13.277Z,53.08
2019-03-05T11:25:44.056Z,52.92
2019-03-05T11:28:15.036Z,52.59
2019-03-05T11:30:45.791Z,52.54
2019-03-05T11:33:18.375Z,52.31
2019-03-05T11:35:51.361Z,51.74
2019-03-05T11:38:22.177Z,51.09
2019-03-05T11:40:53.115Z,50.89
2019-03-05T11:43:24.528Z,50.81
2019-03-05T11:45:55.196Z,50.47
2019-03-05T11:48:26.050Z,49.78
2019-03-05T11:50:57.458Z,50.53
2019-03-05T11:53:28.132Z,49.66
2019-03-05T11:55:58.715Z,49.02
2019-03-05T11:58:29.557Z,49.68
2019-03-05T12:01:02.306Z,49.74
2019-03-05T12:03:34.296Z,50.11
2019-03-05T12:06:04.917Z,50.05
2019-03-05T12:08:36.259Z,50.19
2019-03-05T12:11:07.409Z,50.78
2019-03-05T12:13:38.177Z,52.12
2019-03-05T12:16:10.139Z,52.50
2019-03-05T12:18:40.860Z,52.15
2019-03-05T12:21:11.457Z,52.10
2019-03-05T12:23:46.743Z,52.02
2019-03-05T12:26:14.809Z,52.66
2019-03-05T12:28:45.204Z,51.83
2019-03-05T12:31:19.479Z,51.38
2019-03-05T12:33:50.239Z,51.12
2019-03-05T12:36:45.903Z,51.23
2019-03-05T12:39:23.538Z,51.68
2019-03-05T12:41:54.729Z,52.52
2019-03-05T12:44:25.290Z,54.22
2019-03-05T12:46:56.456Z,61.03
2019-03-05T12:49:27.175Z,65.19
2019-03-05T12:51:57.719Z,71.73
2019-03-05T12:54:28.485Z,75.85
2019-03-05T12:56:59.377Z,78.66
2019-03-05T12:59:30.160Z,80.36
2019-03-05T13:02:00.820Z,80.56
2019-03-05T13:04:31.418Z,78.58
2019-03-05T13:07:02.377Z,77.85
2019-03-05T13:09:33.093Z,78.76
2019-03-05T13:12:05.186Z,78.50
2019-03-05T13:14:38.229Z,79.58
2019-03-05T13:17:09.279Z,80.73
2019-03-05T13:19:40.168Z,80.96
2019-03-05T13:22:11.057Z,82.57
2019-03-05T13:24:42.021Z,82.92
2019-03-05T13:27:13.027Z,83.65
2019-03-05T13:29:43.985Z,81.39
2019-03-05T13:32:16.834Z,79.34
2019-03-05T13:34:47.617Z,78.85
2019-03-05T13:37:18.378Z,77.57
2019-03-05T13:39:50.569Z,77.70
2019-03-05T13:42:22.331Z,76.40
2019-03-05T13:44:53.152Z,76.45
2019-03-05T13:47:23.652Z,75.99
2019-03-05T13:49:59.992Z,74.79
2019-03-05T13:52:35.939Z,74.07
2019-03-05T13:55:09.577Z,72.55
2019-03-05T13:57:43.760Z,72.21
2019-03-05T14:00:15.188Z,73.26
2019-03-05T14:02:52.936Z,71.06
2019-03-05T14:05:25.469Z,70.43
2019-03-05T14:08:00.465Z,69.11
2019-03-05T14:10:31.319Z,68.50
2019-03-05T14:13:01.883Z,68.87
2019-03-05T14:15:33.086Z,67.06
2019-03-05T14:18:03.811Z,67.84
2019-03-05T14:20:35.168Z,66.51
2019-03-05T14:23:06.157Z,67.13
2019-03-05T14:25:37.776Z,67.79
2019-03-05T14:28:08.620Z,66.59
2019-03-05T14:30:39.573Z,68.10
2019-03-05T14:33:10.049Z,65.57
2019-03-05T14:35:41.286Z,65.23
2019-03-05T14:38:12.099Z,65.20
2019-03-05T14:40:42.970Z,65.53
2019-03-05T14:43:13.599Z,64.13
2019-03-05T14:45:44.410Z,64.48
2019-03-05T14:48:14.999Z,65.37
2019-03-05T14:50:45.959Z,64.47
2019-03-05T14:53:18.046Z,64.12
2019-03-05T14:55:49.026Z,63.31
2019-03-05T14:58:19.673Z,62.92
2019-03-05T15:00:50.802Z,62.99
2019-03-05T15:03:40.823Z,63.31
2019-03-05T15:06:11.518Z,62.62
2019-03-05T15:08:42.398Z,63.13
2019-03-05T15:11:13.418Z,61.60
2019-03-05T15:13:44.623Z,61.51
2019-03-05T15:16:15.905Z,61.34
2019-03-05T15:18:46.723Z,62.44
2019-03-05T15:21:17.420Z,61.00
2019-03-05T15:23:48.169Z,60.18
2019-03-05T15:26:18.865Z,60.03
2019-03-05T15:28:56.370Z,60.27
2019-03-05T15:31:22.960Z,60.10
2019-03-05T15:33:54.917Z,61.07
2019-03-05T15:36:25.362Z,60.35
2019-03-05T15:38:55.880Z,58.36
2019-03-05T15:41:27.884Z,57.31
2019-03-05T15:43:58.864Z,57.49
2019-03-05T15:46:29.603Z,56.21
2019-03-05T15:49:00.544Z,55.73
2019-03-05T15:51:31.001Z,55.20
2019-03-05T15:54:01.899Z,54.88
2019-03-05T15:56:32.398Z,55.05
2019-03-05T15:59:03.117Z,55.46
2019-03-05T16:01:33.999Z,56.42
2019-03-05T16:04:04.662Z,57.24
2019-03-05T16:06:35.504Z,58.60
2019-03-05T16:09:09.503Z,58.77
2019-03-05T16:11:40.741Z,59.11
2019-03-05T16:14:14.744Z,59.83
2019-03-05T16:16:53.286Z,59.99
2019-03-05T16:19:27.105Z,60.11
2019-03-05T16:21:57.700Z,60.85
2019-03-05T16:24:28.513Z,64.89
2019-03-05T16:27:00.041Z,67.17
2019-03-05T16:29:31.058Z,66.81
2019-03-05T16:32:03.510Z,67.74
2019-03-05T16:34:35.738Z,68.34
2019-03-05T16:37:08.260Z,68.71
2019-03-05T16:39:40.404Z,68.61
2019-03-05T16:42:15.290Z,68.65
2019-03-05T16:44:48.357Z,68.66
2019-03-05T16:47:24.838Z,69.31
2019-03-05T16:49:55.407Z,69.81
2019-03-05T16:52:27.619Z,70.42
2019-03-05T16:54:59.848Z,70.11
2019-03-05T16:57:35.352Z,70.55
2019-03-05T17:00:10.975Z,70.44
2019-03-05T17:02:52.918Z,70.75
2019-03-05T17:05:31.111Z,71.13
2019-03-05T17:08:03.078Z,71.61
2019-03-05T17:10:36.476Z,71.96
2019-03-05T17:13:11.579Z,72.71
2019-03-05T17:15:42.620Z,73.21
2019-03-05T17:18:13.731Z,73.55
2019-03-05T17:20:44.364Z,73.69
2019-03-05T17:23:15.416Z,74.14
2019-03-05T17:25:49.516Z,74.47
2019-03-05T17:28:21.652Z,74.83
2019-03-05T17:30:52.230Z,74.86
2019-03-05T17:33:23.132Z,75.13
2019-03-05T17:35:54.215Z,75.11
2019-03-05T17:38:25.239Z,75.25
2019-03-05T17:40:56.293Z,75.38
2019-03-05T17:43:27.052Z,75.33
2019-03-05T17:45:58.779Z,75.31
2019-03-05T17:48:29.418Z,75.14
2019-03-05T17:51:00.919Z,75.33
2019-03-05T17:53:31.784Z,75.31
2019-03-05T17:56:03.388Z,75.15
2019-03-05T17:58:34.769Z,75.23
2019-03-05T18:01:06.818Z,75.25
2019-03-05T18:03:37.913Z,75.31
2019-03-05T18:06:08.542Z,75.19
2019-03-05T18:08:39.576Z,75.34
2019-03-05T18:11:10.346Z,75.12
2019-03-05T18:13:41.165Z,75.35
2019-03-05T18:16:12.477Z,75.15
2019-03-05T18:18:43.398Z,75.18
2019-03-05T18:21:14.859Z,75.25
2019-03-05T18:23:45.942Z,75.53
2019-03-05T18:26:16.569Z,75.38
2019-03-05T18:28:46.975Z,75.61
2019-03-05T18:31:17.814Z,75.86
2019-03-05T18:33:48.520Z,75.87
2019-03-05T18:36:19.269Z,76.01
2019-03-05T18:38:49.658Z,76.31
2019-03-05T18:41:21.221Z,76.19
2019-03-05T18:43:51.838Z,76.31
2019-03-05T18:46:23.074Z,76.41
2019-03-05T18:48:55.924Z,76.82
2019-03-05T18:51:26.839Z,76.47
2019-03-05T18:53:57.980Z,76.52
2019-03-05T18:56:29.158Z,77.01
2019-03-05T18:59:00.861Z,76.99
2019-03-05T19:01:33.358Z,77.17
2019-03-05T19:04:03.750Z,77.32
2019-03-05T19:06:34.653Z,77.51
2019-03-05T19:09:06.376Z,77.64
2019-03-05T19:12:00.655Z,78.32
2019-03-05T19:14:36.678Z,79.33
2019-03-05T19:17:08.410Z,79.78
2019-03-05T19:19:39.258Z,80.25
2019-03-05T19:22:10.091Z,80.30
2019-03-05T19:24:41.302Z,79.94
2019-03-05T19:27:13.816Z,79.79
2019-03-05T19:29:45.375Z,79.40
2019-03-05T19:32:16.457Z,79.14
2019-03-05T19:34:47.124Z,79.17
2019-03-05T19:37:17.546Z,79.09
2019-03-05T19:39:50.845Z,79.34
2019-03-05T19:42:22.676Z,79.68
2019-03-05T19:44:53.695Z,79.59
2019-03-05T19:47:49.485Z,79.78
2019-03-05T19:50:22.756Z,79.69
2019-03-05T19:52:53.996Z,79.81
2019-03-05T19:55:28.136Z,79.95
2019-03-05T19:58:00.399Z,80.02
2019-03-05T20:00:33.318Z,80.08
2019-03-05T20:03:05.357Z,80.35
2019-03-05T20:05:36.282Z,80.50
2019-03-05T20:08:08.042Z,80.70
2019-03-05T20:10:39.019Z,80.98
2019-03-05T20:13:10.400Z,81.22
2019-03-05T20:15:42.064Z,81.46
2019-03-05T20:18:13.758Z,81.70
2019-03-05T20:20:44.638Z,81.75
2019-03-05T20:23:16.276Z,81.81
2019-03-05T20:25:47.760Z,81.84
2019-03-05T20:28:18.237Z,81.66
2019-03-05T20:30:51.623Z,81.69
2019-03-05T20:33:25.100Z,82.03
2019-03-05T20:35:57.652Z,81.97
2019-03-05T20:38:29.549Z,82.16
2019-03-05T20:41:00.221Z,82.20
2019-03-05T20:43:31.949Z,82.11
2019-03-05T20:46:07.473Z,82.09
2019-03-05T20:48:39.007Z,82.13
2019-03-05T20:51:10.626Z,82.58
2019-03-05T20:53:42.289Z,82.59
2019-03-05T20:56:14.808Z,82.83
2019-03-05T20:58:46.407Z,82.80
2019-03-05T21:01:17.684Z,82.80
2019-03-05T21:03:48.856Z,82.90
2019-03-05T21:06:20.128Z,82.84
2019-03-05T21:08:51.608Z,82.96
2019-03-05T21:11:22.608Z,83.17
2019-03-05T21:13:54.408Z,83.38
2019-03-05T21:16:25.747Z,83.54
2019-03-05T21:18:56.735Z,83.58
2019-03-05T21:21:27.935Z,83.80
2019-03-05T21:23:59.214Z,83.97
2019-03-05T21:26:30.094Z,83.77
2019-03-05T21:29:02.079Z,83.85
2019-03-05T21:31:33.596Z,84.01
2019-03-05T21:34:04.992Z,83.99
2019-03-05T21:36:36.545Z,83.80
2019-03-05T21:39:10.755Z,83.91
2019-03-05T21:41:42.275Z,84.02
2019-03-05T21:44:13.275Z,83.98
2019-03-05T21:46:44.317Z,83.95
2019-03-05T21:49:15.674Z,83.67
2019-03-05T21:51:46.556Z,83.74
2019-03-05T21:54:18.956Z,83.64
2019-03-05T21:56:49.959Z,83.63
2019-03-05T21:59:20.980Z,83.61
2019-03-05T22:01:52.036Z,83.42
2019-03-05T22:04:23.235Z,83.40
2019-03-05T22:06:54.518Z,83.28
2019-03-05T22:09:25.835Z,83.31
2019-03-05T22:11:56.957Z,83.26
2019-03-05T22:14:27.981Z,83.05
2019-03-05T22:16:59.180Z,83.02
2019-03-05T22:19:30.180Z,83.01
2019-03-05T22:22:01.342Z,83.02
2019-03-05T22:24:32.338Z,82.94
2019-03-05T22:27:03.063Z,82.98
2019-03-05T22:29:34.270Z,82.92
2019-03-05T22:32:05.082Z,82.75
2019-03-05T22:34:37.448Z,82.91
2019-03-05T22:37:08.459Z,82.80
2019-03-05T22:39:39.640Z,82.61
2019-03-05T22:42:11.468Z,82.38
2019-03-05T22:44:42.616Z,82.34
2019-03-05T22:47:14.048Z,82.27
2019-03-05T22:49:45.207Z,82.24
2019-03-05T22:52:16.577Z,82.03
2019-03-05T22:54:47.982Z,82.02
2019-03-05T22:57:19.492Z,81.94
2019-03-05T22:59:50.554Z,81.97
2019-03-05T23:02:22.002Z,82.02
2019-03-05T23:04:53.078Z,81.99
2019-03-05T23:07:24.665Z,81.94
2019-03-05T23:09:55.951Z,82.11
2019-03-05T23:12:27.681Z,81.97
2019-03-05T23:14:59.118Z,82.18
2019-03-05T23:17:30.506Z,82.37
2019-03-05T23:20:01.514Z,82.24
2019-03-05T23:22:32.579Z,82.24
2019-03-05T23:25:04.181Z,82.41
2019-03-05T23:27:36.255Z,82.53
2019-03-05T23:30:10.284Z,82.54
2019-03-05T23:32:43.029Z,82.57
2019-03-05T23:35:15.153Z,82.75
2019-03-05T23:37:45.948Z,83.04
2019-03-05T23:40:19.761Z,83.04
2019-03-05T23:42:50.762Z,83.03
2019-03-05T23:45:22.266Z,83.31
2019-03-05T23:47:53.366Z,83.29
2019-03-05T23:50:24.005Z,83.02
2019-03-05T23:52:54.827Z,83.23
2019-03-05T23:55:25.831Z,83.12
2019-03-05T23:57:57.049Z,83.29
